createdAt,value
2023-02-04T00:01:06.933Z,2.33
2023-02-04T00:03:33.380Z,1.63
2023-02-04T00:05:59.981Z,1.88
2023-02-04T00:08:26.404Z,2.27
2023-02-04T00:10:52.903Z,2.10
2023-02-04T00:13:19.308Z,1.83
2023-02-04T00:15:45.914Z,1.50
2023-02-04T00:18:12.430Z,1.55
2023-02-04T00:20:39.111Z,1.90
2023-02-04T00:23:08.225Z,1.35
2023-02-04T00:25:34.731Z,2.15
2023-02-04T00:28:01.366Z,2.05
2023-02-04T00:30:28.333Z,1.58
2023-02-04T00:32:56.512Z,1.87
2023-02-04T00:35:24.231Z,1.77
2023-02-04T00:37:54.078Z,1.83
2023-02-04T00:40:20.877Z,1.13
2023-02-04T00:42:47.431Z,1.55
2023-02-04T00:45:13.845Z,2.00
2023-02-04T00:47:40.366Z,2.10
2023-02-04T00:50:08.936Z,2.10
2023-02-04T00:52:35.527Z,1.85
2023-02-04T00:55:01.972Z,1.50
2023-02-04T00:57:28.413Z,2.07
2023-02-04T00:59:55.029Z,1.02
2023-02-04T01:02:21.682Z,1.50
2023-02-04T01:04:48.222Z,1.88
2023-02-04T01:07:14.769Z,2.13
2023-02-04T01:09:41.200Z,1.27
2023-02-04T01:12:07.744Z,1.52
2023-02-04T01:14:34.298Z,1.20
2023-02-04T01:17:00.868Z,1.30
2023-02-04T01:19:27.272Z,1.80
2023-02-04T01:21:53.734Z,1.57
2023-02-04T01:24:20.090Z,1.88
2023-02-04T01:26:46.436Z,1.40
2023-02-04T01:29:13.061Z,2.28
2023-02-04T01:31:39.572Z,1.85
2023-02-04T01:34:07.334Z,2.73
2023-02-04T01:36:33.748Z,1.40
2023-02-04T01:39:01.034Z,1.48
2023-02-04T01:41:28.273Z,1.75
2023-02-04T01:43:55.005Z,1.55
2023-02-04T01:46:21.442Z,1.90
2023-02-04T01:48:47.920Z,1.73
2023-02-04T01:51:26.974Z,2.40
2023-02-04T01:53:55.302Z,1.60
2023-02-04T01:56:26.889Z,2.42
2023-02-04T01:58:55.882Z,2.07
2023-02-04T02:01:43.811Z,1.90
2023-02-04T02:04:20.209Z,1.95
2023-02-04T02:06:53.964Z,1.60
2023-02-04T02:09:20.541Z,2.28
2023-02-04T02:11:47.276Z,2.37
2023-02-04T02:14:14.310Z,1.83
2023-02-04T02:16:41.300Z,1.58
2023-02-04T02:19:12.977Z,1.52
2023-02-04T02:21:55.278Z,1.55
2023-02-04T02:24:32.694Z,1.23
2023-02-04T02:27:04.643Z,2.28
2023-02-04T02:29:31.330Z,2.05
2023-02-04T02:31:59.000Z,2.00
2023-02-04T02:34:30.295Z,1.85
2023-02-04T02:36:59.378Z,1.90
2023-02-04T02:39:26.604Z,2.00
2023-02-04T02:41:53.879Z,2.10
2023-02-04T02:44:20.696Z,2.13
2023-02-04T02:46:47.192Z,1.40
2023-02-04T02:49:18.098Z,1.93
2023-02-04T02:51:45.700Z,2.03
2023-02-04T02:54:39.112Z,2.55
2023-02-04T02:57:13.091Z,2.00
2023-02-04T02:59:39.532Z,2.00
2023-02-04T03:02:06.656Z,2.23
2023-02-04T03:04:37.936Z,1.83
2023-02-04T03:07:04.858Z,1.63
2023-02-04T03:09:33.154Z,2.22
2023-02-04T03:11:59.870Z,2.90
2023-02-04T03:14:27.322Z,1.73
2023-02-04T03:16:55.582Z,1.77
2023-02-04T03:19:25.451Z,2.13
2023-02-04T03:21:52.391Z,2.15
2023-02-04T03:24:19.007Z,2.17
2023-02-04T03:26:45.711Z,2.10
2023-02-04T03:29:12.260Z,1.77
2023-02-04T03:31:39.035Z,2.47
2023-02-04T03:34:05.728Z,2.28
2023-02-04T03:36:32.651Z,2.10
2023-02-04T03:38:59.204Z,1.90
2023-02-04T03:41:25.650Z,2.40
2023-02-04T03:43:52.040Z,1.90
2023-02-04T03:46:18.609Z,2.40
2023-02-04T03:48:45.218Z,2.05
2023-02-04T03:51:11.587Z,1.90
2023-02-04T03:53:38.027Z,2.38
2023-02-04T03:56:04.782Z,1.60
2023-02-04T03:58:31.628Z,2.13
2023-02-04T04:00:58.022Z,1.95
2023-02-04T04:03:24.576Z,1.53
2023-02-04T04:05:51.148Z,1.40
2023-02-04T04:08:17.592Z,3.00
2023-02-04T04:10:44.016Z,1.98
2023-02-04T04:13:10.489Z,2.03
2023-02-04T04:15:36.894Z,2.13
2023-02-04T04:18:04.695Z,2.70
2023-02-04T04:20:31.399Z,2.33
2023-02-04T04:22:58.212Z,2.10
2023-02-04T04:25:24.718Z,2.58
2023-02-04T04:27:51.204Z,1.83
2023-02-04T04:30:17.970Z,2.75
2023-02-04T04:32:44.294Z,2.28
2023-02-04T04:35:10.669Z,2.08
2023-02-04T04:37:37.090Z,1.90
2023-02-04T04:40:03.867Z,1.47
2023-02-04T04:42:30.230Z,1.77
2023-02-04T04:44:56.699Z,2.10
2023-02-04T04:47:23.200Z,2.13
2023-02-04T04:49:49.651Z,1.45
2023-02-04T04:52:16.075Z,1.87
2023-02-04T04:54:42.571Z,1.05
2023-02-04T04:57:09.043Z,1.83
2023-02-04T04:59:35.533Z,1.77
2023-02-04T05:02:01.924Z,1.92
2023-02-04T05:04:28.469Z,1.97
2023-02-04T05:06:55.038Z,1.77
2023-02-04T05:09:21.578Z,1.75
2023-02-04T05:11:48.015Z,2.55
2023-02-04T05:14:14.434Z,1.70
2023-02-04T05:16:40.872Z,1.83
2023-02-04T05:19:07.370Z,2.08
2023-02-04T05:21:33.862Z,1.60
2023-02-04T05:24:00.543Z,1.95
2023-02-04T05:26:30.796Z,1.45
2023-02-04T05:29:00.269Z,1.63
2023-02-04T05:31:27.103Z,2.47
2023-02-04T05:33:54.566Z,1.80
2023-02-04T05:36:21.303Z,1.92
2023-02-04T05:38:47.802Z,2.13
2023-02-04T05:41:14.504Z,1.60
2023-02-04T05:43:40.915Z,2.17
2023-02-04T05:46:07.428Z,2.05
2023-02-04T05:48:34.264Z,1.75
2023-02-04T05:51:00.790Z,1.85
2023-02-04T05:53:27.268Z,1.37
2023-02-04T05:55:53.754Z,1.60
2023-02-04T05:58:20.279Z,1.88
2023-02-04T06:00:46.671Z,2.15
2023-02-04T06:03:14.567Z,2.17
2023-02-04T06:05:41.305Z,1.87
2023-02-04T06:08:07.721Z,1.38
2023-02-04T06:10:34.284Z,2.08
2023-02-04T06:13:00.844Z,2.08
2023-02-04T06:15:29.518Z,1.70
2023-02-04T06:17:56.262Z,1.40
2023-02-04T06:20:22.727Z,1.45
2023-02-04T06:22:51.639Z,1.88
2023-02-04T06:25:18.366Z,1.80
2023-02-04T06:27:46.002Z,1.90
2023-02-04T06:30:13.841Z,1.70
2023-02-04T06:32:40.613Z,1.73
2023-02-04T06:35:08.138Z,1.88
2023-02-04T06:37:34.517Z,2.55
2023-02-04T06:40:01.125Z,1.98
2023-02-04T06:42:27.819Z,1.33
2023-02-04T06:44:54.142Z,2.20
2023-02-04T06:47:20.636Z,1.83
2023-02-04T06:49:47.166Z,2.10
2023-02-04T06:52:13.776Z,2.20
2023-02-04T06:54:40.170Z,1.80
2023-02-04T06:57:06.761Z,2.17
2023-02-04T06:59:34.472Z,1.77
2023-02-04T07:02:00.888Z,2.22
2023-02-04T07:04:27.526Z,1.52
2023-02-04T07:06:54.187Z,1.57
2023-02-04T07:09:20.771Z,2.53
2023-02-04T07:11:47.200Z,1.73
2023-02-04T07:14:13.640Z,1.70
2023-02-04T07:16:40.242Z,2.13
2023-02-04T07:19:06.784Z,2.13
2023-02-04T07:21:33.252Z,2.05
2023-02-04T07:23:59.737Z,2.20
2023-02-04T07:26:26.413Z,2.00
2023-02-04T07:28:52.893Z,1.52
2023-02-04T07:31:19.287Z,1.57
2023-02-04T07:33:45.854Z,2.35
2023-02-04T07:36:13.790Z,1.75
2023-02-04T07:38:41.422Z,1.80
2023-02-04T07:41:08.059Z,1.55
2023-02-04T07:43:34.699Z,1.83
2023-02-04T07:46:01.093Z,1.50
2023-02-04T07:48:27.546Z,2.20
2023-02-04T07:50:53.990Z,1.65
2023-02-04T07:53:20.429Z,1.77
2023-02-04T07:55:46.949Z,1.70
2023-02-04T07:58:13.599Z,1.85
2023-02-04T08:00:40.052Z,2.03
2023-02-04T08:03:06.689Z,1.88
2023-02-04T08:05:33.281Z,2.10
2023-02-04T08:08:01.815Z,2.40
2023-02-04T08:10:28.319Z,2.35
2023-02-04T08:12:54.784Z,2.25
2023-02-04T08:15:21.201Z,2.17
2023-02-04T08:17:47.595Z,2.40
2023-02-04T08:20:14.142Z,1.87
2023-02-04T08:22:40.481Z,2.08
2023-02-04T08:25:07.094Z,2.33
2023-02-04T08:27:33.556Z,2.28
2023-02-04T08:30:00.082Z,2.70
2023-02-04T08:32:27.445Z,2.00
2023-02-04T08:34:53.842Z,2.95
2023-02-04T08:37:20.344Z,3.55
2023-02-04T08:39:47.352Z,3.10
2023-02-04T08:42:13.852Z,2.35
2023-02-04T08:44:40.374Z,2.90
2023-02-04T08:47:06.919Z,2.30
2023-02-04T08:49:33.378Z,2.88
2023-02-04T08:51:59.844Z,2.60
2023-02-04T08:54:26.454Z,2.90
2023-02-04T08:56:52.883Z,3.10
2023-02-04T08:59:19.341Z,2.55
2023-02-04T09:01:51.048Z,3.40
2023-02-04T09:04:18.863Z,3.05
2023-02-04T09:06:45.994Z,2.85
2023-02-04T09:09:13.282Z,2.97
2023-02-04T09:11:40.189Z,3.58
2023-02-04T09:14:07.113Z,3.10
2023-02-04T09:16:33.705Z,3.60
2023-02-04T09:19:01.741Z,3.88
2023-02-04T09:21:29.046Z,3.10
2023-02-04T09:23:55.552Z,3.05
2023-02-04T09:26:22.670Z,3.42
2023-02-04T09:28:49.172Z,3.70
2023-02-04T09:31:16.359Z,3.47
2023-02-04T09:33:44.391Z,3.40
2023-02-04T09:36:10.783Z,3.28
2023-02-04T09:38:37.155Z,2.70
2023-02-04T09:41:08.705Z,2.22
2023-02-04T09:43:40.705Z,3.00
2023-02-04T09:46:38.865Z,3.67
2023-02-04T09:49:05.641Z,2.88
2023-02-04T09:51:34.602Z,2.92
2023-02-04T09:54:09.860Z,2.70
2023-02-04T09:56:36.431Z,2.80
2023-02-04T09:59:05.303Z,2.53
2023-02-04T10:01:31.713Z,2.15
2023-02-04T10:04:01.983Z,2.85
2023-02-04T10:06:28.435Z,2.92
2023-02-04T10:08:56.566Z,2.47
2023-02-04T10:11:26.456Z,2.37
2023-02-04T10:13:56.042Z,3.35
2023-02-04T10:16:32.816Z,1.90
2023-02-04T10:19:04.906Z,2.00
2023-02-04T10:21:32.877Z,2.08
2023-02-04T10:24:02.706Z,1.97
2023-02-04T10:26:30.908Z,2.53
2023-02-04T10:29:02.832Z,2.38
2023-02-04T10:31:37.831Z,2.90
2023-02-04T10:34:18.915Z,2.03
2023-02-04T10:36:48.385Z,2.63
2023-02-04T10:39:17.237Z,2.97
2023-02-04T10:41:57.871Z,2.10
2023-02-04T10:44:39.726Z,2.50
2023-02-04T10:47:15.274Z,2.33
2023-02-04T10:49:51.341Z,2.27
2023-02-04T10:52:20.900Z,2.13
2023-02-04T10:54:47.822Z,2.40
2023-02-04T10:57:28.269Z,2.17
2023-02-04T11:00:00.118Z,3.03
2023-02-04T11:05:18.055Z,2.75
2023-02-04T11:07:46.474Z,2.97
2023-02-04T11:10:16.610Z,2.38
2023-02-04T11:12:59.866Z,2.70
2023-02-04T11:15:49.246Z,2.17
2023-02-04T11:18:19.853Z,2.83
2023-02-04T11:20:47.554Z,2.28
2023-02-04T11:23:34.165Z,2.60
2023-02-04T11:26:14.554Z,2.15
2023-02-04T11:28:41.032Z,2.50
2023-02-04T11:31:19.836Z,1.83
2023-02-04T11:33:46.856Z,1.58
2023-02-04T11:36:15.005Z,1.50
2023-02-04T11:38:49.897Z,1.50
2023-02-04T11:41:29.386Z,1.60
2023-02-04T11:43:57.363Z,2.08
2023-02-04T11:46:27.083Z,1.67
2023-02-04T11:48:55.768Z,2.25
2023-02-04T11:51:29.832Z,1.60
2023-02-04T11:53:56.156Z,2.47
2023-02-04T11:56:23.774Z,1.50
2023-02-04T11:58:50.840Z,1.77
2023-02-04T12:01:25.583Z,1.70
2023-02-04T12:04:03.885Z,2.63
2023-02-04T12:06:33.672Z,2.80
2023-02-04T12:09:27.583Z,2.17
2023-02-04T12:11:59.532Z,1.70
2023-02-04T12:14:37.438Z,1.80
2023-02-04T12:17:17.482Z,2.50
2023-02-04T12:19:43.964Z,2.30
2023-02-04T12:22:10.341Z,1.80
2023-02-04T12:24:36.840Z,2.03
2023-02-04T12:27:03.216Z,1.77
2023-02-04T12:29:29.640Z,1.63
2023-02-04T12:31:56.117Z,2.10
2023-02-04T12:34:22.536Z,1.63
2023-02-04T12:36:48.980Z,1.92
2023-02-04T12:39:15.456Z,1.70
2023-02-04T12:41:41.876Z,1.83
2023-02-04T12:44:08.529Z,1.43
2023-02-04T12:46:35.121Z,1.85
2023-02-04T12:49:01.593Z,1.55
2023-02-04T12:51:28.056Z,1.65
2023-02-04T12:53:54.495Z,1.70
2023-02-04T12:56:23.383Z,1.80
2023-02-04T12:58:49.802Z,1.63
2023-02-04T13:01:16.346Z,2.00
2023-02-04T13:03:42.777Z,2.05
2023-02-04T13:06:09.275Z,1.73
2023-02-04T13:08:35.705Z,1.53
2023-02-04T13:11:02.078Z,1.98
2023-02-04T13:13:28.659Z,1.70
2023-02-04T13:15:55.038Z,2.00
2023-02-04T13:18:21.420Z,2.17
2023-02-04T13:20:47.837Z,1.80
2023-02-04T13:23:14.272Z,2.17
2023-02-04T13:25:40.858Z,2.00
2023-02-04T13:28:07.564Z,1.95
2023-02-04T13:30:34.001Z,1.70
2023-02-04T13:33:00.428Z,2.00
2023-02-04T13:35:26.837Z,1.98
2023-02-04T13:37:54.110Z,2.95
2023-02-04T13:40:21.686Z,1.95
2023-02-04T13:42:48.188Z,1.77
2023-02-04T13:45:16.293Z,1.93
2023-02-04T13:47:42.758Z,1.52
2023-02-04T13:50:09.837Z,2.78
2023-02-04T13:52:36.327Z,2.10
2023-02-04T13:55:02.814Z,2.70
2023-02-04T13:57:30.916Z,2.63
2023-02-04T13:59:57.435Z,1.75
2023-02-04T14:02:24.004Z,2.45
2023-02-04T14:04:50.914Z,2.10
2023-02-04T14:07:17.264Z,1.85
2023-02-04T14:09:43.801Z,2.20
2023-02-04T14:12:10.249Z,1.92
2023-02-04T14:14:36.606Z,1.52
2023-02-04T14:17:02.983Z,2.00
2023-02-04T14:19:29.329Z,1.83
2023-02-04T14:21:55.908Z,1.90
2023-02-04T14:24:22.444Z,2.38
2023-02-04T14:26:48.909Z,2.10
2023-02-04T14:29:15.266Z,2.25
2023-02-04T14:31:41.723Z,1.95
2023-02-04T14:34:08.176Z,1.80
2023-02-04T14:36:34.571Z,2.20
2023-02-04T14:39:01.127Z,2.10
2023-02-04T14:41:30.086Z,2.75
2023-02-04T14:43:57.267Z,2.28
2023-02-04T14:46:23.879Z,1.67
2023-02-04T14:48:52.099Z,2.00
2023-02-04T14:51:19.502Z,1.85
2023-02-04T14:53:48.736Z,1.85
2023-02-04T14:56:16.090Z,1.80
2023-02-04T14:58:42.848Z,1.90
2023-02-04T15:01:09.431Z,2.10
2023-02-04T15:03:36.066Z,2.17
2023-02-04T15:06:02.982Z,1.80
2023-02-04T15:08:29.705Z,2.88
2023-02-04T15:10:56.199Z,2.10
2023-02-04T15:13:22.628Z,2.03
2023-02-04T15:15:49.106Z,3.05
2023-02-04T15:18:15.746Z,2.10
2023-02-04T15:20:42.071Z,1.95
2023-02-04T15:23:08.495Z,2.67
2023-02-04T15:25:35.157Z,2.00
2023-02-04T15:28:01.617Z,1.92
2023-02-04T15:30:28.043Z,2.05
2023-02-04T15:32:54.552Z,2.53
2023-02-04T15:35:21.832Z,1.90
2023-02-04T15:37:48.617Z,2.15
2023-02-04T15:40:15.447Z,2.00
2023-02-04T15:42:42.826Z,3.13
2023-02-04T15:45:09.783Z,2.25
2023-02-04T15:47:36.160Z,2.43
2023-02-04T15:50:05.785Z,2.00
2023-02-04T15:52:34.998Z,2.67
2023-02-04T15:55:01.383Z,1.85
2023-02-04T15:57:27.757Z,2.75
2023-02-04T15:59:54.248Z,2.80
2023-02-04T16:02:20.745Z,2.00
2023-02-04T16:04:47.887Z,1.90
2023-02-04T16:07:14.360Z,2.40
2023-02-04T16:09:40.762Z,1.92
2023-02-04T16:12:07.269Z,1.93
2023-02-04T16:14:33.884Z,2.83
2023-02-04T16:17:01.726Z,3.25
2023-02-04T16:19:28.772Z,2.92
2023-02-04T16:21:55.619Z,3.38
2023-02-04T16:24:22.027Z,3.97
2023-02-04T16:26:48.570Z,4.30
2023-02-04T16:29:15.077Z,4.53
2023-02-04T16:31:41.559Z,3.33
2023-02-04T16:34:08.035Z,2.35
2023-02-04T16:36:34.478Z,2.20
2023-02-04T16:39:02.840Z,2.47
2023-02-04T16:41:29.673Z,1.90
2023-02-04T16:43:56.124Z,2.10
2023-02-04T16:46:22.655Z,2.45
2023-02-04T16:48:49.130Z,2.00
2023-02-04T16:51:15.541Z,2.20
2023-02-04T16:53:41.965Z,2.10
2023-02-04T16:56:08.404Z,1.67
2023-02-04T16:58:34.804Z,1.73
2023-02-04T17:01:01.309Z,2.30
2023-02-04T17:03:28.416Z,2.67
2023-02-04T17:05:54.871Z,2.08
2023-02-04T17:08:21.891Z,2.05
2023-02-04T17:11:07.622Z,2.47
2023-02-04T17:13:34.699Z,2.33
2023-02-04T17:16:01.619Z,2.80
2023-02-04T17:18:29.732Z,3.67
2023-02-04T17:20:56.385Z,3.08
2023-02-04T17:23:22.918Z,3.03
2023-02-04T17:25:49.394Z,2.70
2023-02-04T17:28:15.887Z,2.42
2023-02-04T17:30:42.359Z,2.40
2023-02-04T17:33:08.943Z,2.40
2023-02-04T17:35:35.705Z,2.60
2023-02-04T17:38:02.457Z,2.63
2023-02-04T17:40:28.852Z,3.35
2023-02-04T17:42:56.309Z,3.50
2023-02-04T17:45:22.729Z,3.80
2023-02-04T17:47:49.183Z,3.00
2023-02-04T17:50:15.665Z,3.50
2023-02-04T17:52:42.112Z,3.70
2023-02-04T17:55:28.874Z,3.42
2023-02-04T17:58:00.525Z,4.05
2023-02-04T18:00:29.382Z,4.95
2023-02-04T18:02:56.722Z,4.33
2023-02-04T18:05:26.451Z,3.90
2023-02-04T18:07:58.649Z,4.50
2023-02-04T18:10:33.160Z,4.07
2023-02-04T18:13:01.918Z,3.75
2023-02-04T18:15:31.082Z,3.57
2023-02-04T18:18:24.717Z,3.50
2023-02-04T18:20:58.715Z,3.92
2023-02-04T18:23:28.654Z,6.18
2023-02-04T18:26:00.178Z,6.03
2023-02-04T18:28:27.048Z,6.17
2023-02-04T18:30:58.839Z,6.80
2023-02-04T18:33:26.878Z,6.57
2023-02-04T18:36:00.285Z,5.90
2023-02-04T18:38:34.335Z,5.93
2023-02-04T18:41:18.826Z,4.97
2023-02-04T18:43:50.495Z,5.00
2023-02-04T18:46:26.161Z,4.53
2023-02-04T18:49:02.286Z,4.20
2023-02-04T18:51:34.756Z,3.92
2023-02-04T18:54:22.815Z,4.00
2023-02-04T18:56:49.325Z,4.10
2023-02-04T18:59:18.256Z,4.70
2023-02-04T19:01:47.035Z,4.88
2023-02-04T19:04:28.178Z,4.90
2023-02-04T19:06:56.509Z,5.70
2023-02-04T19:09:27.316Z,4.60
2023-02-04T19:11:58.333Z,4.90
2023-02-04T19:14:42.793Z,5.45
2023-02-04T19:17:25.963Z,4.68
2023-02-04T19:19:57.686Z,5.00
2023-02-04T19:22:43.283Z,4.53
2023-02-04T19:25:22.163Z,4.95
2023-02-04T19:27:54.449Z,4.82
2023-02-04T19:30:29.877Z,4.72
2023-02-04T19:33:01.931Z,4.67
2023-02-04T19:35:35.344Z,4.28
2023-02-04T19:38:28.844Z,6.40
2023-02-04T19:40:55.202Z,7.55
2023-02-04T19:43:26.831Z,8.60
2023-02-04T19:45:54.341Z,7.47
2023-02-04T19:48:36.070Z,7.20
2023-02-04T19:51:26.175Z,6.35
2023-02-04T19:54:16.278Z,6.70
2023-02-04T19:56:42.802Z,6.85
2023-02-04T19:59:25.738Z,6.50
2023-02-04T20:02:07.068Z,6.63
2023-02-04T20:04:42.662Z,6.50
2023-02-04T20:07:23.586Z,6.32
2023-02-04T20:10:14.278Z,6.63
2023-02-04T20:12:41.268Z,6.23
2023-02-04T20:15:20.081Z,6.00
2023-02-04T20:17:50.213Z,6.13
2023-02-04T20:20:24.352Z,5.70
2023-02-04T20:23:02.352Z,6.75
2023-02-04T20:25:45.807Z,6.70
2023-02-04T20:28:19.856Z,6.38
2023-02-04T20:30:51.126Z,6.50
2023-02-04T20:33:28.494Z,6.78
2023-02-04T20:36:38.450Z,6.80
2023-02-04T20:39:32.479Z,6.80
2023-02-04T20:42:17.577Z,6.10
2023-02-04T20:44:43.990Z,7.13
2023-02-04T20:47:19.668Z,6.50
2023-02-04T20:49:57.144Z,6.85
2023-02-04T20:52:43.629Z,6.27
2023-02-04T20:55:32.877Z,6.90
2023-02-04T20:58:11.765Z,8.07
2023-02-04T21:00:39.677Z,7.90
2023-02-04T21:03:33.486Z,8.25
2023-02-04T21:06:00.916Z,9.47
2023-02-04T21:08:35.490Z,10.82
2023-02-04T21:11:02.426Z,10.65
2023-02-04T21:13:28.942Z,10.75
2023-02-04T21:15:55.498Z,9.82
2023-02-04T21:18:22.140Z,10.27
2023-02-04T21:20:48.517Z,9.63
2023-02-04T21:23:14.963Z,9.57
2023-02-04T21:25:41.417Z,7.60
2023-02-04T21:28:07.896Z,6.53
2023-02-04T21:30:34.461Z,6.40
2023-02-04T21:33:01.069Z,6.68
2023-02-04T21:35:28.221Z,5.95
2023-02-04T21:37:58.989Z,7.05
2023-02-04T21:40:26.328Z,7.32
2023-02-04T21:42:53.013Z,6.53
2023-02-04T21:45:21.206Z,7.78
2023-02-04T21:47:49.224Z,8.30
2023-02-04T21:50:16.718Z,7.53
2023-02-04T21:52:44.571Z,8.63
2023-02-04T21:55:13.012Z,7.97
2023-02-04T21:57:39.528Z,7.47
2023-02-04T22:00:07.764Z,8.90
2023-02-04T22:02:34.289Z,8.88
2023-02-04T22:05:00.854Z,8.25
2023-02-04T22:07:27.274Z,9.27
2023-02-04T22:09:53.644Z,8.40
2023-02-04T22:12:20.476Z,7.82
2023-02-04T22:15:05.367Z,8.43
2023-02-04T22:17:32.481Z,8.57
2023-02-04T22:19:59.305Z,8.23
2023-02-04T22:22:25.820Z,8.55
2023-02-04T22:24:52.271Z,8.30
2023-02-04T22:27:19.339Z,8.05
2023-02-04T22:29:45.770Z,8.90
2023-02-04T22:32:12.142Z,7.43
2023-02-04T22:34:38.555Z,7.60
2023-02-04T22:37:04.980Z,8.57
2023-02-04T22:39:31.537Z,7.13
2023-02-04T22:41:57.887Z,8.38
2023-02-04T22:44:24.314Z,6.73
2023-02-04T22:46:50.765Z,7.53
2023-02-04T22:49:17.191Z,7.60
2023-02-04T22:51:43.611Z,6.97
2023-02-04T22:54:10.066Z,7.10
2023-02-04T22:56:36.573Z,7.77
2023-02-04T22:59:03.151Z,6.70
2023-02-04T23:01:29.630Z,7.00
2023-02-04T23:03:56.045Z,6.75
2023-02-04T23:06:22.600Z,6.18
2023-02-04T23:08:49.909Z,6.27
2023-02-04T23:11:18.424Z,7.95
2023-02-04T23:13:46.161Z,6.70
2023-02-04T23:16:12.638Z,7.60
2023-02-04T23:18:39.098Z,7.57
2023-02-04T23:21:05.858Z,7.90
2023-02-04T23:23:33.080Z,8.48
2023-02-04T23:26:00.446Z,8.07
2023-02-04T23:28:27.061Z,8.50
2023-02-04T23:30:53.659Z,8.05
2023-02-04T23:33:20.114Z,7.70
2023-02-04T23:35:46.878Z,8.25
2023-02-04T23:38:13.557Z,7.85
2023-02-04T23:40:40.006Z,8.73
2023-02-04T23:43:06.518Z,8.20
2023-02-04T23:45:33.408Z,7.57
2023-02-04T23:47:59.991Z,8.23
2023-02-04T23:50:26.454Z,8.52
2023-02-04T23:52:52.860Z,7.90
2023-02-04T23:55:19.315Z,8.63
2023-02-04T23:57:49.644Z,9.10
